Time;durP1;ratioP1;P1;durP2;ratioP2;P2;SDS_P1;SDS_P2;PMS_P1;PMS_P2;Temp;Humidity;BMP_temperature;BMP_pressure;BME280_temperature;BME280_humidity;BME280_pressure;Samples;Min_cycle;Max_cycle;Signal;HPM_P1;HPM_P2
2022/02/15 00:00:22;;;;;;;4.70;1.70;;;;;;;5.73;100.00;100541.97;5057787;28;20056;-53
2022/02/15 00:02:50;;;;;;;3.38;1.60;;;;;;;5.70;100.00;100547.34;5051794;28;20060;-48
2022/02/15 00:05:19;;;;;;;4.00;1.75;;;;;;;5.66;100.00;100556.22;5060377;28;20051;-47
2022/02/15 00:07:48;;;;;;;4.97;2.22;;;;;;;5.62;100.00;100547.72;5069635;28;20453;-46
2022/02/15 00:10:16;;;;;;;5.55;1.85;;;;;;;5.60;100.00;100552.16;5060156;28;20051;-45
2022/02/15 00:12:44;;;;;;;5.28;2.10;;;;;;;5.58;100.00;100567.91;5060543;28;20037;-47
2022/02/15 00:15:13;;;;;;;4.05;2.00;;;;;;;5.56;100.00;100571.50;5055156;28;20040;-45
2022/02/15 00:17:42;;;;;;;4.95;1.90;;;;;;;5.54;100.00;100568.97;5065202;28;20442;-44
2022/02/15 00:20:12;;;;;;;5.00;2.42;;;;;;;5.58;100.00;100577.50;5069735;28;20564;-47
2022/02/15 00:22:40;;;;;;;5.47;2.20;;;;;;;5.57;100.00;100573.19;5057284;28;20055;-47
2022/02/15 00:25:10;;;;;;;8.43;2.72;;;;;;;5.58;100.00;100565.28;5056327;28;20045;-46
2022/02/15 00:27:38;;;;;;;7.05;2.65;;;;;;;5.57;100.00;100575.81;5062460;28;20076;-47
2022/02/15 00:30:08;;;;;;;5.97;2.55;;;;;;;5.56;100.00;100572.38;5069392;28;20068;-47
2022/02/15 00:32:36;;;;;;;6.18;2.65;;;;;;;5.58;100.00;100580.09;5070265;28;20055;-53
2022/02/15 00:35:05;;;;;;;7.32;3.03;;;;;;;5.54;100.00;100578.56;5072660;28;20072;-54
2022/02/15 00:37:33;;;;;;;8.15;3.03;;;;;;;5.50;100.00;100583.06;5072408;28;20403;-52
2022/02/15 00:40:01;;;;;;;6.97;3.22;;;;;;;5.52;100.00;100578.66;5069136;28;20126;-45
2022/02/15 00:42:30;;;;;;;8.23;4.13;;;;;;;5.59;100.00;100577.41;5068905;28;20040;-55
2022/02/15 00:44:58;;;;;;;7.95;3.13;;;;;;;5.57;100.00;100581.84;5072666;28;20048;-51
2022/02/15 00:47:26;;;;;;;9.18;3.13;;;;;;;5.57;100.00;100588.84;5072364;28;20049;-51
2022/02/15 00:49:54;;;;;;;6.55;3.20;;;;;;;5.54;100.00;100582.00;5072465;28;20044;-53
2022/02/15 00:52:23;;;;;;;9.35;3.75;;;;;;;5.55;100.00;100593.31;5072378;28;20041;-53
2022/02/15 00:54:51;;;;;;;9.18;3.47;;;;;;;5.59;100.00;100598.28;5071458;28;20047;-54
2022/02/15 00:57:22;;;;;;;7.57;3.47;;;;;;;5.55;100.00;100594.16;5061921;28;20395;-54
2022/02/15 00:59:52;;;;;;;7.32;3.55;;;;;;;5.64;100.00;100594.63;5058712;28;20075;-53
2022/02/15 01:02:20;;;;;;;9.02;3.63;;;;;;;5.64;100.00;100600.66;5070325;28;20140;-55
2022/02/15 01:04:49;;;;;;;8.40;3.45;;;;;;;5.69;100.00;100595.25;5059523;28;20049;-53
2022/02/15 01:07:17;;;;;;;11.07;3.92;;;;;;;5.63;100.00;100600.75;5052356;28;20040;-55
2022/02/15 01:09:45;;;;;;;11.27;3.90;;;;;;;5.65;100.00;100596.31;5066352;28;20044;-54
2022/02/15 01:12:13;;;;;;;11.05;4.05;;;;;;;5.68;100.00;100599.59;5067310;28;20052;-53
2022/02/15 01:14:41;;;;;;;8.50;3.67;;;;;;;5.71;100.00;100594.25;5068209;28;20078;-54
2022/02/15 01:17:11;;;;;;;9.23;3.53;;;;;;;5.70;100.00;100599.53;5064727;28;20356;-55
2022/02/15 01:19:39;;;;;;;8.48;4.30;;;;;;;5.66;100.00;100605.81;5055591;28;20056;-54
2022/02/15 01:22:07;;;;;;;9.90;4.25;;;;;;;5.67;100.00;100613.59;5057188;28;20785;-55
2022/02/15 01:24:35;;;;;;;7.47;3.65;;;;;;;5.71;100.00;100615.13;5059441;28;20041;-53
2022/02/15 01:27:04;;;;;;;11.00;4.65;;;;;;;5.69;100.00;100613.50;5069972;28;20036;-46
2022/02/15 01:29:32;;;;;;;11.48;5.15;;;;;;;5.70;100.00;100612.56;5064031;28;20049;-46
2022/02/15 01:32:00;;;;;;;10.10;4.65;;;;;;;5.68;100.00;100614.41;5073958;28;20037;-44
2022/02/15 01:34:30;;;;;;;9.95;4.75;;;;;;;5.74;100.00;100614.13;5065440;28;20040;-45
2022/02/15 01:36:58;;;;;;;11.07;4.93;;;;;;;5.66;100.00;100616.25;5068840;28;20044;-45
2022/02/15 01:39:26;;;;;;;13.70;4.72;;;;;;;5.70;100.00;100625.63;5056910;28;20114;-45
2022/02/15 01:41:55;;;;;;;10.75;4.93;;;;;;;5.70;100.00;100626.47;5064853;28;20055;-46
2022/02/15 01:44:23;;;;;;;13.05;5.18;;;;;;;5.69;100.00;100629.16;5073597;28;20045;-46
2022/02/15 01:46:52;;;;;;;10.80;5.18;;;;;;;5.68;100.00;100637.91;5071981;28;20056;-48
2022/02/15 01:49:20;;;;;;;11.38;4.75;;;;;;;5.68;100.00;100635.28;5062799;28;20547;-47
2022/02/15 01:51:50;;;;;;;14.75;5.80;;;;;;;5.67;100.00;100633.59;5067239;28;20432;-45
2022/02/15 01:54:18;;;;;;;11.73;5.78;;;;;;;5.69;100.00;100634.38;5065944;28;20053;-46
2022/02/15 01:56:46;;;;;;;12.90;4.60;;;;;;;5.68;100.00;100643.97;5053013;28;20429;-48
2022/02/15 01:59:14;;;;;;;9.98;5.13;;;;;;;5.68;100.00;100646.56;5069634;28;20064;-47
2022/02/15 02:01:43;;;;;;;9.77;4.68;;;;;;;5.66;100.00;100648.41;5065171;28;20041;-45
2022/02/15 02:05:47;;;;;;;10.90;5.03;;;;;;;5.58;100.00;100643.56;5069120;28;20044;-54
2022/02/15 02:07:00;;;;;;;11.18;5.18;;;;;;;5.64;100.00;100652.00;5069837;28;20065;-55
2022/02/15 02:09:28;;;;;;;12.10;5.35;;;;;;;5.65;100.00;100644.13;5066754;28;20087;-54
2022/02/15 02:11:58;;;;;;;12.60;5.75;;;;;;;5.63;100.00;100648.56;5065416;28;20509;-53
2022/02/15 02:14:26;;;;;;;13.25;5.47;;;;;;;5.64;100.00;100649.41;5065457;28;20087;-54
2022/02/15 02:16:54;;;;;;;10.10;4.70;;;;;;;5.64;100.00;100652.00;5073204;28;20040;-53
2022/02/15 02:19:22;;;;;;;11.02;5.63;;;;;;;5.65;100.00;100644.13;5063512;28;20052;-54
2022/02/15 02:21:51;;;;;;;10.38;5.10;;;;;;;5.63;100.00;100647.72;5062490;28;20036;-53
2022/02/15 02:24:19;;;;;;;12.00;5.03;;;;;;;5.68;100.00;100650.94;5058917;28;20110;-55
2022/02/15 02:26:49;;;;;;;11.88;5.15;;;;;;;5.66;100.00;100658.00;5055598;28;20052;-53
2022/02/15 02:29:18;;;;;;;10.50;4.65;;;;;;;5.61;100.00;100660.84;5065863;28;20470;-52
2022/02/15 02:31:48;;;;;;;10.18;4.90;;;;;;;5.59;100.00;100660.91;5065347;28;20060;-52
2022/02/15 02:34:16;;;;;;;12.10;5.20;;;;;;;5.58;100.00;100659.22;5072386;28;20059;-52
2022/02/15 02:36:45;;;;;;;13.05;4.90;;;;;;;5.61;100.00;100667.81;5071705;28;20089;-54
2022/02/15 02:39:15;;;;;;;12.75;4.90;;;;;;;5.60;100.00;100672.19;5071946;28;20060;-54
2022/02/15 02:41:43;;;;;;;9.57;3.95;;;;;;;5.58;100.00;100671.41;5065287;28;20399;-54
2022/02/15 02:44:11;;;;;;;10.38;4.57;;;;;;;5.56;100.00;100671.50;5065771;28;20041;-52
2022/02/15 02:46:39;;;;;;;11.32;4.70;;;;;;;5.56;100.00;100681.06;5059226;28;20049;-52
2022/02/15 02:49:07;;;;;;;10.15;4.55;;;;;;;5.58;100.00;100685.31;5071258;28;20040;-51
2022/02/15 02:51:35;;;;;;;11.23;4.15;;;;;;;5.56;100.00;100687.16;5064360;28;20796;-53
2022/02/15 02:54:03;;;;;;;11.10;4.95;;;;;;;5.55;100.00;100685.44;5068224;28;20055;-53
2022/02/15 02:56:33;;;;;;;8.15;3.88;;;;;;;5.53;100.00;100686.44;5065169;28;20044;-52
2022/02/15 02:59:01;;;;;;;11.20;4.10;;;;;;;5.51;100.00;100688.28;5057706;28;20414;-51
2022/02/15 03:01:29;;;;;;;10.10;3.88;;;;;;;5.59;100.00;100689.59;5056984;28;20115;-52
2022/02/15 03:03:57;;;;;;;8.48;3.28;;;;;;;5.57;100.00;100682.78;5071610;28;20036;-53
2022/02/15 03:06:26;;;;;;;10.55;3.22;;;;;;;5.50;100.00;100687.41;5066652;28;20090;-53
2022/02/15 03:08:55;;;;;;;7.80;3.30;;;;;;;5.46;100.00;100690.25;5061682;28;20051;-52
2022/02/15 03:11:23;;;;;;;7.07;3.20;;;;;;;5.45;100.00;100696.38;5061207;28;20052;-52
2022/02/15 03:13:52;;;;;;;7.57;3.20;;;;;;;5.46;100.00;100695.47;5069478;28;20125;-52
2022/02/15 03:16:23;;;;;;;8.30;3.03;;;;;;;5.44;100.00;100694.69;5066351;28;20442;-51
2022/02/15 03:18:51;;;;;;;8.65;2.75;;;;;;;5.43;100.00;100701.66;5062827;28;20040;-53
2022/02/15 03:21:19;;;;;;;7.97;2.88;;;;;;;5.48;100.00;100704.91;5068210;28;20101;-54
2022/02/15 03:23:48;;;;;;;7.93;3.25;;;;;;;5.45;100.00;100710.25;5059902;28;20040;-54
2022/02/15 03:26:16;;;;;;;8.95;3.08;;;;;;;5.42;100.00;100710.41;5064561;28;20041;-54
2022/02/15 03:28:44;;;;;;;8.45;3.15;;;;;;;5.41;100.00;100713.91;5064328;28;20056;-55
2022/02/15 03:31:14;;;;;;;9.73;3.10;;;;;;;5.41;100.00;100713.91;5051218;28;20047;-53
2022/02/15 03:33:42;;;;;;;8.18;3.40;;;;;;;5.41;100.00;100709.56;5054101;28;20380;-53
2022/02/15 03:36:10;;;;;;;10.27;3.38;;;;;;;5.37;100.00;100707.16;5051341;28;20569;-55
2022/02/15 03:38:38;;;;;;;8.27;3.53;;;;;;;5.35;100.00;100719.44;5049635;28;20057;-53
2022/02/15 03:43:54;;;;;;;8.35;3.38;;;;;;;5.46;100.00;100724.16;5053702;28;20049;-54
2022/02/15 03:46:24;;;;;;;8.77;3.53;;;;;;;5.45;100.00;100731.13;5053822;28;20053;-53
2022/02/15 03:48:53;;;;;;;7.20;3.47;;;;;;;5.42;100.00;100736.50;5053938;28;20045;-54
2022/02/15 03:51:21;;;;;;;12.35;3.28;;;;;;;5.44;100.00;100739.03;5052633;28;20053;-54
2022/02/15 03:53:49;;;;;;;8.32;3.75;;;;;;;5.44;100.00;100737.28;5053382;28;20052;-53
2022/02/15 03:56:17;;;;;;;8.55;3.47;;;;;;;5.41;100.00;100738.25;5049077;28;20068;-55
2022/02/15 03:58:46;;;;;;;10.25;3.35;;;;;;;5.41;100.00;100737.41;5050427;28;20052;-55
2022/02/15 04:01:15;;;;;;;6.97;3.28;;;;;;;5.41;100.00;100735.66;5053197;28;20052;-53
2022/02/15 04:03:44;;;;;;;7.97;3.40;;;;;;;5.41;100.00;100735.66;5053263;28;20435;-51
2022/02/15 04:06:12;;;;;;;8.68;3.15;;;;;;;5.41;100.00;100738.25;5053293;28;20488;-53
2022/02/15 04:08:40;;;;;;;8.95;3.30;;;;;;;5.41;100.00;100746.09;5053108;28;20053;-53
2022/02/15 04:11:08;;;;;;;8.68;2.90;;;;;;;5.45;100.00;100752.00;5053154;28;20048;-52
2022/02/15 04:13:36;;;;;;;9.73;3.10;;;;;;;5.40;100.00;100759.19;5053016;28;20551;-53
2022/02/15 04:16:05;;;;;;;8.43;3.15;;;;;;;5.48;100.00;100761.44;5052805;28;20511;-54
2022/02/15 04:18:33;;;;;;;9.18;3.53;;;;;;;5.45;100.00;100767.66;5052919;28;20522;-54
2022/02/15 04:21:03;;;;;;;8.40;3.60;;;;;;;5.47;100.00;100768.44;5052908;28;20128;-51
2022/02/15 04:23:31;;;;;;;8.48;3.30;;;;;;;5.46;100.00;100778.94;5052871;28;20121;-55
2022/02/15 04:25:59;;;;;;;7.43;3.08;;;;;;;5.41;100.00;100782.59;5052979;28;20055;-52
2022/02/15 04:28:27;;;;;;;9.90;3.85;;;;;;;5.43;100.00;100787.75;5052935;28;20041;-54
2022/02/15 04:30:55;;;;;;;11.55;3.30;;;;;;;5.42;100.00;100779.06;5051828;28;20060;-52
2022/02/15 04:33:23;;;;;;;9.45;3.72;;;;;;;5.45;100.00;100774.63;5053233;28;20151;-54
2022/02/15 04:35:52;;;;;;;8.38;3.40;;;;;;;5.45;100.00;100780.69;5052623;28;20049;-54
2022/02/15 04:38:21;;;;;;;9.45;3.55;;;;;;;5.44;100.00;100789.44;5052726;28;20156;-54
2022/02/15 04:40:49;;;;;;;11.60;3.42;;;;;;;5.40;100.00;100783.50;5052599;28;20097;-52
2022/02/15 04:43:19;;;;;;;10.48;3.53;;;;;;;5.37;100.00;100788.00;5052535;28;20049;-54
2022/02/15 04:45:49;;;;;;;10.05;3.17;;;;;;;5.41;100.00;100786.97;5052275;28;20037;-55
2022/02/15 04:48:17;;;;;;;8.23;3.50;;;;;;;5.43;100.00;100787.75;5050952;28;20383;-55
2022/02/15 04:50:45;;;;;;;10.48;3.22;;;;;;;5.44;100.00;100799.03;5052426;28;20068;-55
2022/02/15 04:53:13;;;;;;;12.23;4.05;;;;;;;5.42;100.00;100805.13;5052582;28;20041;-56
2022/02/15 04:55:43;;;;;;;8.65;3.40;;;;;;;5.41;100.00;100808.69;5051047;28;20140;-53
2022/02/15 04:58:11;;;;;;;6.75;3.22;;;;;;;5.46;100.00;100811.09;5051815;28;20045;-55
2022/02/15 05:00:41;;;;;;;8.57;3.65;;;;;;;5.47;100.00;100810.16;5051591;28;20048;-49
2022/02/15 05:03:09;;;;;;;10.05;4.00;;;;;;;5.44;100.00;100812.94;5051868;28;20072;-44
2022/02/15 05:05:37;;;;;;;7.25;3.53;;;;;;;5.47;100.00;100807.56;5051845;28;20044;-46
2022/02/15 05:08:06;;;;;;;8.10;3.95;;;;;;;5.45;100.00;100809.38;5051855;28;20588;-48
2022/02/15 05:10:34;;;;;;;9.75;4.25;;;;;;;5.46;100.00;100800.66;5052232;28;20570;-45
2022/02/15 05:13:08;;;;;;;9.75;4.47;;;;;;;5.44;100.00;100810.31;5050691;28;20167;-46
2022/02/15 05:15:36;;;;;;;9.75;4.53;;;;;;;5.49;100.00;100810.94;5052153;28;20044;-47
2022/02/15 05:18:05;;;;;;;12.23;4.50;;;;;;;5.48;100.00;100816.22;5051986;28;20057;-47
2022/02/15 05:20:34;;;;;;;10.95;4.80;;;;;;;5.46;100.00;100823.28;5050727;28;20194;-48
2022/02/15 05:23:03;;;;;;;10.70;5.82;;;;;;;5.46;100.00;100815.47;5052033;28;20053;-50
2022/02/15 05:25:31;;;;;;;12.50;5.60;;;;;;;5.45;100.00;100816.38;5052119;28;20534;-47
2022/02/15 05:27:59;;;;;;;16.20;6.10;;;;;;;5.41;100.00;100813.03;5052024;28;20052;-46
2022/02/15 05:30:30;;;;;;;16.50;6.65;;;;;;;5.38;100.00;100813.19;5051728;28;20053;-45
2022/02/15 05:32:58;;;;;;;12.57;6.93;;;;;;;5.41;100.00;100815.66;5051887;28;20072;-46
2022/02/15 05:35:26;;;;;;;16.60;6.82;;;;;;;5.42;100.00;100814.75;5051899;28;20427;-44
2022/02/15 05:37:55;;;;;;;14.77;6.88;;;;;;;5.44;100.00;100825.97;5051631;28;20049;-46
2022/02/15 05:40:23;;;;;;;16.10;7.28;;;;;;;5.39;100.00;100822.72;5051456;28;20053;-45
2022/02/15 05:42:51;;;;;;;14.38;7.93;;;;;;;5.39;100.00;100826.16;5051826;28;20041;-47
2022/02/15 05:45:19;;;;;;;23.17;9.00;;;;;;;5.40;100.00;100827.03;5051836;28;20103;-48
2022/02/15 05:47:48;;;;;;;14.25;8.77;;;;;;;5.45;100.00;100830.25;5051691;28;20045;-45
2022/02/15 05:53:02;;;;;;;16.52;9.20;;;;;;;5.41;100.00;100829.56;5051681;28;20507;-46
2022/02/15 05:55:30;;;;;;;20.80;11.73;;;;;;;5.46;100.00;100831.13;5051693;28;20051;-46
2022/02/15 05:57:58;;;;;;;17.13;10.32;;;;;;;5.48;100.00;100829.28;5051473;28;20058;-47
2022/02/15 06:00:26;;;;;;;20.73;11.65;;;;;;;5.42;100.00;100833.00;5051504;28;20049;-48
2022/02/15 06:02:55;;;;;;;19.67;10.25;;;;;;;5.39;100.00;100831.38;5051728;28;20454;-49
2022/02/15 06:05:23;;;;;;;21.20;11.75;;;;;;;5.45;100.00;100835.47;5051758;28;20392;-44
2022/02/15 06:07:52;;;;;;;21.17;11.32;;;;;;;5.44;100.00;100831.19;5051688;28;20045;-46
2022/02/15 06:10:20;;;;;;;21.08;11.50;;;;;;;5.45;100.00;100830.25;5051342;28;20099;-43
2022/02/15 06:12:48;;;;;;;21.98;12.07;;;;;;;5.46;100.00;100826.72;5051255;28;20053;-45
2022/02/15 06:15:16;;;;;;;19.88;11.15;;;;;;;5.51;100.00;100832.59;5053345;28;20049;-44
2022/02/15 06:17:44;;;;;;;21.27;12.00;;;;;;;5.55;100.00;100836.78;5055131;28;20130;-44
2022/02/15 06:20:13;;;;;;;21.08;11.55;;;;;;;5.49;100.00;100842.25;5053673;28;20049;-47
2022/02/15 06:22:41;;;;;;;25.67;12.32;;;;;;;5.49;100.00;100849.22;5055179;28;20053;-43
2022/02/15 06:25:10;;;;;;;22.33;12.63;;;;;;;5.48;100.00;100843.19;5054901;28;20073;-54
2022/02/15 06:27:38;;;;;;;22.13;11.65;;;;;;;5.53;100.00;100842.97;5054959;28;20044;-55
2022/02/15 06:30:09;;;;;;;22.27;12.73;;;;;;;5.51;100.00;100850.03;5054710;28;20067;-53
2022/02/15 06:32:38;;;;;;;23.50;12.60;;;;;;;5.57;100.00;100845.34;5054627;28;20557;-44
2022/02/15 06:35:07;;;;;;;20.92;11.63;;;;;;;5.55;100.00;100852.44;5054684;28;20500;-48
2022/02/15 06:37:36;;;;;;;20.73;11.98;;;;;;;5.55;100.00;100855.03;5054610;28;20090;-52
2022/02/15 06:40:06;;;;;;;27.05;12.98;;;;;;;5.55;100.00;100852.44;5054466;28;20064;-53
2022/02/15 06:42:35;;;;;;;20.48;11.85;;;;;;;5.57;100.00;100868.84;5054591;28;20044;-44
2022/02/15 06:45:03;;;;;;;21.23;12.80;;;;;;;5.61;100.00;100866.13;5054372;28;20492;-43
2022/02/15 06:47:32;;;;;;;24.35;12.32;;;;;;;5.52;100.00;100868.22;5054658;28;20045;-43
2022/02/15 06:50:00;;;;;;;22.27;12.32;;;;;;;5.53;100.00;100869.06;5054369;28;20049;-54
2022/02/15 06:52:29;;;;;;;25.00;13.40;;;;;;;5.55;100.00;100875.91;5054843;28;20065;-44
2022/02/15 06:55:18;;;;;;;28.65;12.70;;;;;;;5.62;100.00;100873.00;5054434;28;20049;-53
2022/02/15 06:57:46;;;;;;;23.08;12.00;;;;;;;5.58;100.00;100877.53;5054379;28;20052;-53
2022/02/15 07:00:15;;;;;;;23.88;13.30;;;;;;;5.60;100.00;100880.91;5054244;28;20053;-52
2022/02/15 07:02:43;;;;;;;24.73;12.45;;;;;;;5.63;100.00;100879.94;5054471;28;20124;-46
2022/02/15 07:05:12;;;;;;;29.40;13.80;;;;;;;5.62;100.00;100880.84;5054220;28;20041;-54
2022/02/15 07:07:40;;;;;;;25.00;13.73;;;;;;;5.62;100.00;100875.63;5054218;28;20049;-53
2022/02/15 07:10:10;;;;;;;20.92;12.13;;;;;;;5.67;100.00;100881.50;5054168;28;20067;-53
2022/02/15 07:12:40;;;;;;;21.55;13.50;;;;;;;5.66;100.00;100882.41;5054172;28;20072;-44
2022/02/15 07:15:09;;;;;;;26.65;12.95;;;;;;;5.68;100.00;100885.81;5054321;28;20110;-51
2022/02/15 07:17:37;;;;;;;26.08;13.80;;;;;;;5.74;100.00;100893.38;5054116;28;20041;-50
2022/02/15 07:20:07;;;;;;;21.40;12.80;;;;;;;5.71;100.00;100893.50;5053735;28;20048;-52
2022/02/15 07:22:35;;;;;;;23.60;13.60;;;;;;;5.69;100.00;100901.38;5053860;28;20511;-44
2022/02/15 07:25:04;;;;;;;26.10;13.07;;;;;;;5.65;100.00;100907.66;5053286;28;20048;-49
2022/02/15 07:27:32;;;;;;;25.08;12.02;;;;;;;5.67;100.00;100915.41;5052297;28;20115;-45
2022/02/15 07:30:02;;;;;;;30.40;13.43;;;;;;;5.67;100.00;100918.88;5053350;28;20132;-46
2022/02/15 07:32:30;;;;;;;23.00;12.25;;;;;;;5.70;100.00;100916.13;5053442;28;20037;-45
2022/02/15 07:34:58;;;;;;;24.85;13.50;;;;;;;5.70;100.00;100916.13;5053836;28;20496;-45
2022/02/15 07:37:28;;;;;;;26.65;12.70;;;;;;;5.71;100.00;100924.81;5053783;28;20071;-44
2022/02/15 07:39:57;;;;;;;22.63;12.50;;;;;;;5.76;100.00;100928.06;5053534;28;20061;-46
2022/02/15 07:42:25;;;;;;;23.35;12.25;;;;;;;5.72;100.00;100927.34;5053785;28;20055;-46
2022/02/15 07:44:53;;;;;;;21.08;12.18;;;;;;;5.74;100.00;100927.31;5053602;28;20079;-44
2022/02/15 07:47:23;;;;;;;22.92;12.25;;;;;;;5.81;100.00;100933.94;5053473;28;20518;-50
2022/02/15 07:49:51;;;;;;;24.13;11.95;;;;;;;5.80;100.00;100934.00;5052164;28;20049;-43
2022/02/15 07:52:19;;;;;;;25.27;12.55;;;;;;;5.83;100.00;100934.72;5053583;28;20127;-47
2022/02/15 07:54:47;;;;;;;26.73;12.23;;;;;;;5.80;100.00;100939.22;5053477;28;20052;-47
2022/02/15 07:57:15;;;;;;;21.63;12.32;;;;;;;5.78;100.00;100947.13;5053508;28;20064;-46
2022/02/15 07:59:43;;;;;;;20.38;11.55;;;;;;;5.78;100.00;100954.97;5053363;28;20111;-45
2022/02/15 08:02:12;;;;;;;26.75;10.68;;;;;;;5.76;100.00;100959.38;5053291;28;20053;-43
2022/02/15 08:04:41;;;;;;;23.55;11.85;;;;;;;5.77;100.00;100958.47;5051992;28;20407;-44
2022/02/15 08:07:09;;;;;;;22.10;11.25;;;;;;;5.82;100.00;100953.03;5053110;28;20499;-46
2022/02/15 08:09:37;;;;;;;22.92;10.95;;;;;;;5.84;100.00;100951.22;5053290;28;20499;-46
2022/02/15 08:12:09;;;;;;;22.15;9.82;;;;;;;5.83;100.00;100955.59;5052701;28;20044;-44
2022/02/15 08:14:37;;;;;;;24.52;10.65;;;;;;;5.87;100.00;100956.31;5051622;28;20052;-46
2022/02/15 08:17:05;;;;;;;26.27;10.55;;;;;;;6.15;100.00;100961.19;5053277;28;20493;-45
2022/02/15 08:19:33;;;;;;;21.27;10.02;;;;;;;6.23;100.00;100964.31;5053047;28;20056;-44
2022/02/15 08:22:03;;;;;;;22.60;10.10;;;;;;;6.17;100.00;100967.19;5052679;28;20041;-45
2022/02/15 08:24:31;;;;;;;21.48;9.82;;;;;;;6.23;100.00;100964.31;5053021;28;20048;-47
2022/02/15 08:27:01;;;;;;;17.45;9.23;;;;;;;6.30;100.00;100969.25;5052606;28;20127;-45
2022/02/15 08:29:29;;;;;;;21.15;7.93;;;;;;;6.37;100.00;100978.53;5052979;28;20134;-45
2022/02/15 08:31:58;;;;;;;17.83;7.50;;;;;;;6.39;100.00;100981.91;5052717;28;20438;-44
2022/02/15 08:34:26;;;;;;;19.10;7.70;;;;;;;6.33;100.00;100980.41;5052723;28;20041;-44
2022/02/15 08:36:54;;;;;;;15.05;7.07;;;;;;;6.35;100.00;100977.72;5052336;28;20049;-44
2022/02/15 08:39:25;;;;;;;16.55;6.90;;;;;;;6.34;100.00;100978.63;5052379;28;20056;-44
2022/02/15 08:41:53;;;;;;;16.30;6.63;;;;;;;6.41;100.00;100974.84;5052526;28;20377;-43
2022/02/15 08:44:21;;;;;;;14.07;6.10;;;;;;;6.39;100.00;100984.50;5052415;28;20516;-43
2022/02/15 08:46:52;;;;;;;14.13;6.10;;;;;;;6.44;100.00;100985.16;5051014;28;20099;-44
2022/02/15 08:49:20;;;;;;;13.73;5.70;;;;;;;6.38;100.00;100988.91;5050947;28;20056;-54
2022/02/15 08:51:48;;;;;;;14.38;6.32;;;;;;;6.36;100.00;100995.09;5050933;28;20041;-44
2022/02/15 08:54:16;;;;;;;17.85;6.00;;;;;;;6.39;100.00;100998.44;5052399;28;20048;-57
2022/02/15 08:56:47;;;;;;;16.70;5.93;;;;;;;6.42;100.00;100997.44;5052603;28;20068;-44
2022/02/15 08:59:15;;;;;;;15.35;5.57;;;;;;;6.43;100.00;101004.34;5052690;28;20455;-44
2022/02/15 09:01:43;;;;;;;12.50;5.68;;;;;;;6.49;100.00;101000.59;5052303;28;20059;-46
2022/02/15 09:04:15;;;;;;;13.48;5.85;;;;;;;6.56;100.00;101002.88;5052355;28;20075;-43
2022/02/15 09:06:43;;;;;;;18.48;5.60;;;;;;;6.55;100.00;101001.19;5052368;28;20037;-44
2022/02/15 09:09:13;;;;;;;15.30;5.18;;;;;;;6.55;100.00;101005.56;5052046;28;20123;-55
2022/02/15 09:11:42;;;;;;;16.88;5.72;;;;;;;6.54;100.00;101007.31;5051971;28;20468;-45
2022/02/15 09:14:12;;;;;;;17.48;5.97;;;;;;;6.57;100.00;101003.72;5052045;28;20503;-53
2022/02/15 09:16:41;;;;;;;13.70;5.20;;;;;;;6.58;100.00;101006.25;5052177;28;20049;-44
2022/02/15 09:19:09;;;;;;;16.20;5.25;;;;;;;6.80;100.00;101004.44;5051897;28;20067;-54
2022/02/15 09:21:38;;;;;;;15.80;5.40;;;;;;;7.04;100.00;101012.91;5051780;28;20080;-55
2022/02/15 09:24:09;;;;;;;12.90;4.95;;;;;;;7.12;100.00;101002.91;5051934;28;20111;-43
2022/02/15 09:26:37;;;;;;;12.35;4.93;;;;;;;7.35;100.00;101003.56;5051930;28;20045;-43
2022/02/15 09:29:07;;;;;;;14.70;5.00;;;;;;;7.66;100.00;101010.72;5052213;28;20048;-55
2022/02/15 09:31:37;;;;;;;14.02;4.68;;;;;;;7.79;100.00;101009.19;5051726;28;20129;-49
2022/02/15 09:34:06;;;;;;;13.05;4.40;;;;;;;7.99;100.00;101011.72;5048233;28;20124;-56
2022/02/15 09:36:35;;;;;;;15.48;4.45;;;;;;;8.13;100.00;101019.72;5048461;28;20110;-56
2022/02/15 09:39:03;;;;;;;14.35;4.43;;;;;;;8.18;98.48;101016.84;5051599;28;20049;-54
2022/02/15 09:41:33;;;;;;;12.88;4.82;;;;;;;8.35;98.49;101015.97;5051960;28;20510;-44
2022/02/15 09:44:02;;;;;;;9.57;3.92;;;;;;;8.22;98.38;101029.72;5048796;28;20037;-45
2022/02/15 09:46:31;;;;;;;15.18;4.00;;;;;;;8.57;96.54;101021.78;5048337;28;20582;-54
2022/02/15 09:49:03;;;;;;;14.45;3.78;;;;;;;8.42;95.80;101025.19;5051985;28;20091;-54
2022/02/15 09:51:31;;;;;;;8.77;3.50;;;;;;;8.42;95.61;101025.19;5055684;28;20047;-45
2022/02/15 09:54:01;;;;;;;12.35;4.00;;;;;;;8.51;94.94;101021.25;5055564;28;20051;-55
2022/02/15 09:56:29;;;;;;;11.48;3.20;;;;;;;8.74;93.08;101020.00;5055827;28;20049;-55
2022/02/15 09:58:57;;;;;;;9.73;3.03;;;;;;;8.72;92.98;101019.25;5054902;28;20056;-56
2022/02/15 10:01:26;;;;;;;7.63;3.15;;;;;;;8.48;92.33;101016.19;5052411;28;20052;-47
2022/02/15 10:03:59;;;;;;;14.48;3.42;;;;;;;8.33;92.13;101026.53;5051582;28;20110;-46
2022/02/15 10:06:33;;;;;;;10.82;4.00;;;;;;;8.29;92.76;101030.25;5055739;28;20045;-56
2022/02/15 10:09:02;;;;;;;9.65;3.25;;;;;;;8.32;92.78;101030.06;5055571;28;20063;-56
2022/02/15 10:11:35;;;;;;;9.70;3.00;;;;;;;8.48;91.40;101030.16;5051793;28;20045;-55
2022/02/15 10:14:04;;;;;;;9.20;2.85;;;;;;;8.22;90.53;101032.34;5052440;28;20060;-43
2022/02/15 10:16:33;;;;;;;7.93;2.40;;;;;;;8.15;89.64;101027.50;5055419;28;20041;-56
2022/02/15 10:19:01;;;;;;;11.82;2.78;;;;;;;8.20;90.20;101038.59;5054090;28;20049;-44
2022/02/15 10:21:32;;;;;;;9.35;2.80;;;;;;;8.11;91.97;101039.88;5051161;28;20057;-55
2022/02/15 10:24:00;;;;;;;8.70;3.10;;;;;;;8.27;92.21;101034.72;5050383;28;20060;-56
2022/02/15 10:26:28;;;;;;;8.38;2.97;;;;;;;8.37;90.52;101042.94;5054955;28;20057;-44
2022/02/15 10:28:57;;;;;;;7.32;1.88;;;;;;;8.43;86.42;101037.38;5055092;28;20041;-44
2022/02/15 10:31:45;;;;;;;6.85;2.08;;;;;;;8.32;84.97;101050.19;5055179;28;20107;-44
2022/02/15 10:34:20;;;;;;;5.18;1.63;;;;;;;8.38;83.76;101042.84;5051329;28;20045;-55
2022/02/15 10:36:56;;;;;;;6.25;1.70;;;;;;;8.06;83.17;101052.41;5051331;28;20068;-54
2022/02/15 10:39:38;;;;;;;5.22;1.80;;;;;;;7.87;84.71;101039.41;5052892;28;20763;-56
2022/02/15 10:42:11;;;;;;;8.95;1.95;;;;;;;7.81;86.58;101040.53;5049954;28;20052;-56
2022/02/15 10:44:53;;;;;;;6.22;2.00;;;;;;;7.82;87.55;101044.84;5053999;28;20045;-46
2022/02/15 10:47:21;;;;;;;5.53;1.90;;;;;;;7.90;87.68;101044.47;5054598;28;20041;-45
2022/02/15 10:49:56;;;;;;;9.70;2.83;;;;;;;8.22;87.51;101048.06;5054999;28;20071;-46
2022/02/15 10:52:27;;;;;;;8.73;2.47;;;;;;;8.70;85.63;101049.94;5054700;28;20488;-45
2022/02/15 10:54:55;;;;;;;4.28;1.85;;;;;;;9.11;83.51;101044.22;5054694;28;20369;-55
2022/02/15 10:57:25;;;;;;;11.77;2.42;;;;;;;8.93;82.57;101038.19;5054226;28;20140;-46
2022/02/15 10:59:55;;;;;;;9.25;1.98;;;;;;;9.18;80.19;101021.94;5054203;28;20404;-46
2022/02/15 11:02:25;;;;;;;9.13;2.75;;;;;;;8.93;79.56;101028.56;5054397;28;20116;-45
2022/02/15 11:04:56;;;;;;;7.82;2.10;;;;;;;8.91;79.29;101026.97;5054829;28;20111;-56
2022/02/15 11:07:27;;;;;;;7.32;1.88;;;;;;;9.19;78.37;101023.66;5054503;28;20508;-46
2022/02/15 11:10:07;;;;;;;6.88;1.75;;;;;;;9.70;75.04;101025.16;5054297;28;20084;-44
2022/02/15 11:12:44;;;;;;;7.90;1.83;;;;;;;10.02;71.09;101014.50;5054472;28;20500;-55
2022/02/15 11:15:13;;;;;;;4.63;1.60;;;;;;;10.07;71.49;101017.69;5054159;28;20065;-55
2022/02/15 11:17:48;;;;;;;6.72;1.50;;;;;;;9.97;70.24;101012.16;5054229;28;20063;-45
2022/02/15 11:20:18;;;;;;;7.35;1.70;;;;;;;9.76;70.67;101017.75;5054173;28;20057;-44
2022/02/15 11:22:49;;;;;;;9.10;1.60;;;;;;;9.66;69.79;101018.38;5053987;28;20063;-56
2022/02/15 11:25:29;;;;;;;7.57;1.52;;;;;;;9.67;68.84;101006.91;5051295;28;20044;-45
2022/02/15 11:28:04;;;;;;;6.72;1.58;;;;;;;9.54;70.08;101002.38;5049520;28;20079;-55
2022/02/15 11:30:43;;;;;;;7.00;1.52;;;;;;;9.44;69.87;101003.88;5053744;28;20128;-56
2022/02/15 11:33:11;;;;;;;6.25;1.70;;;;;;;9.22;69.13;100997.22;5050431;28;20044;-56